Stations météo

Publicité
Dourbes, Belgique (6455): Température de l'air & dewpoint: 17.04.2019 04:00:00 - 23.04.2019 04:00:00 (CEST)Dourbes, Belgique (6455): Vitesse du vent & gusts: 17.04.2019 04:00:00 - 23.04.2019 04:00:00 (CEST)Dourbes, Belgique (6455): Direction du vent: 17.04.2019 04:00:00 - 23.04.2019 04:00:00 (CEST)Dourbes, Belgique (6455): reduced air pressure: 17.04.2019 04:00:00 - 23.04.2019 04:00:00 (CEST)Dourbes, Belgique (6455): Ensoleillement: 17.04.2019 04:00:00 - 23.04.2019 04:00:00 (CEST)Dourbes, Belgique (6455): Quantités de précipitations: 17.04.2019 04:00:00 - 23.04.2019 04:00:00 (CEST)
Date & Time tt [°C] td [°C] ff [km/h] ff [knt] fx [km/h] fx [knt] dd ppp [hPa] sd [min] rr [mm]
23.04.2019 04:00:00 12,8 3,7 6 3 14 8 ENE 999,0 0 0,0
23.04.2019 03:00:00 13,0 3,4 5 3 15 8 E 999,7 0 0,0
23.04.2019 02:00:00 14,0 2,2 7 4 17 9 ENE 1000,1 0 0,0
23.04.2019 01:00:00 15,5 1,7 9 5 17 9 ENE 1000,3 0 0,0
23.04.2019 00:00:00 16,1 1,3 7 4 18 10 NE 1000,7 0 0,0
22.04.2019 23:00:00 17,9 0,4 8 4 16 9 ENE 1001,2 0 0,0
22.04.2019 22:00:00 19,3 0,4 9 5 19 11 E 1001,7 0 0,0
22.04.2019 21:00:00 19,9 2,5 9 5 16 9 ENE 1001,3 0 0,0
22.04.2019 20:00:00 21,7 2,7 7 4 14 8 ENE 1001,1 46 0,0
22.04.2019 19:00:00 23,3 1,1 7 4 18 10 E 1001,2 60 0,0
22.04.2019 18:00:00 23,4 1,8 8 5 26 14 ESE 1001,7 60 0,0
22.04.2019 17:00:00 24,5 1,2 13 7 26 14 E 1002,2 60 0,0
22.04.2019 16:00:00 24,3 1,4 12 6 26 14 ENE 1002,9 60 0,0
22.04.2019 15:00:00 23,7 1,2 13 7 28 15 NE 1003,8 60 0,0
22.04.2019 14:00:00 23,7 1,3 7 4 24 13 NNE 1004,6 60 0,0
22.04.2019 13:00:00 23,1 1,3 11 6 26 14 NE 1005,3 60 0,0
22.04.2019 12:00:00 22,2 2,4 11 6 22 12 E 1006,3 60 0,0
22.04.2019 11:00:00 20,0 5,7 8 4 19 10 ENE 1007,4 60 0,0
22.04.2019 10:00:00 18,0 3,9 9 5 18 10 E 1008,0 60 0,0
22.04.2019 09:00:00 12,0 6,5 4 2 9 5 E 1009,2 43 0,0
22.04.2019 08:00:00 10,3 5,8 4 2 9 5 NE 1009,6 37 0,0
22.04.2019 07:00:00 9,0 2,7 6 3 11 6 ENE 1009,8 0 0,0
22.04.2019 06:00:00 9,4 3,5 5 3 9 5 NE 1010,3 0 0,0
22.04.2019 05:00:00 10,3 3,4 5 3 10 5 NE 1010,8 0 0,0
22.04.2019 04:00:00 10,0 4,3 4 2 9 5 NNE 1011,6 0 0,0
22.04.2019 03:00:00 10,2 5,1 0 0 7 4 N 1012,2 0 0,0
22.04.2019 02:00:00 10,9 5,7 0 0 4 2 N 1012,8 0 0,0
22.04.2019 01:00:00 11,7 5,5 0 0 6 3 N 1013,3 0 0,0
22.04.2019 00:00:00 13,5 4,7 4 2 6 3 E 1013,5 0 0,0
21.04.2019 23:00:00 16,0 4,8 4 2 9 5 ENE 1013,6 0 0,0
21.04.2019 22:00:00 17,3 5,0 4 2 8 5 NE 1013,8 0 0,0
21.04.2019 21:00:00 19,2 4,8 4 2 18 10 NE 1013,7 0 0,0
21.04.2019 20:00:00 21,2 5,4 7 4 21 12 NNE 1013,3 48 0,0
21.04.2019 19:00:00 23,4 2,7 9 5 21 11 NE 1013,3 60 0,0
21.04.2019 18:00:00 24,1 2,5 9 5 24 13 NE 1014,0 60 0,0
21.04.2019 17:00:00 24,0 2,2 13 7 28 15 NE 1014,6 60 0,0
21.04.2019 16:00:00 23,9 2,9 11 6 26 14 NE 1015,4 60 0,0
21.04.2019 15:00:00 23,5 3,4 10 6 27 14 NE 1016,2 60 0,0
21.04.2019 14:00:00 23,1 3,7 11 6 27 15 NE 1017,0 60 0,0
21.04.2019 13:00:00 22,3 3,7 12 6 23 13 ENE 1017,8 60 0,0
21.04.2019 12:00:00 20,6 5,6 9 5 19 10 NE 1018,9 60 0,0
21.04.2019 11:00:00 17,5 7,4 6 3 11 6 ENE 1019,9 60 0,0
21.04.2019 10:00:00 14,5 8,3 4 2 9 5 ESE 1020,6 60 0,0
21.04.2019 09:00:00 9,3 6,6 0 0 3 2 N 1021,4 60 0,0
21.04.2019 08:00:00 6,5 5,2 0 0 3 2 N 1021,8 43 0,0
21.04.2019 07:00:00 5,2 3,9 4 2 4 2 S 1022,2 0 0,0
21.04.2019 06:00:00 6,8 4,5 0 0 4 2 N 1022,4 0 0,0
21.04.2019 05:00:00 7,3 4,3 0 0 5 3 N 1022,9 0 0,0
21.04.2019 04:00:00 8,3 4,7 0 0 4 2 N 1023,3 0 0,0
21.04.2019 03:00:00 9,0 5,0 4 2 5 3 SSE 1023,6 0 0,0
21.04.2019 02:00:00 10,4 4,8 4 2 5 3 E 1024,0 0 0,0
21.04.2019 01:00:00 11,8 4,8 4 2 5 3 WNW 1024,2 0 0,0
21.04.2019 00:00:00 15,1 4,7 4 2 10 5 ENE 1024,1 0 0,0
20.04.2019 23:00:00 16,8 4,5 6 4 12 6 NNE 1024,2 0 0,0
20.04.2019 22:00:00 17,7 3,6 5 3 16 9 NE 1024,1 0 0,0
20.04.2019 21:00:00 19,1 3,5 8 4 22 12 NNE 1023,6 1 0,0
20.04.2019 20:00:00 21,0 3,3 11 6 31 17 NNE 1023,5 60 0,0
20.04.2019 19:00:00 22,4 4,4 17 9 32 18 NNE 1023,5 60 0,0
20.04.2019 18:00:00 23,1 5,8 13 7 23 12 NNE 1023,6 60 0,0
20.04.2019 17:00:00 23,6 5,0 12 6 27 14 NE 1024,0 60 0,0
20.04.2019 16:00:00 24,0 5,0 9 5 25 13 NE 1024,5 60 0,0
20.04.2019 15:00:00 23,8 4,1 9 5 30 16 ENE 1025,3 60 0,0
20.04.2019 14:00:00 23,5 3,5 11 6 31 17 NNE 1025,6 60 0,0
20.04.2019 13:00:00 22,7 5,4 11 6 29 16 NE 1026,2 60 0,0
20.04.2019 12:00:00 20,7 7,2 10 5 18 10 ENE 1026,7 60 0,0
20.04.2019 11:00:00 18,1 6,9 5 3 12 7 ENE 1027,3 60 0,0
20.04.2019 10:00:00 14,9 9,0 5 3 11 6 E 1027,7 60 0,0
20.04.2019 09:00:00 9,5 7,1 4 2 4 2 SE 1028,3 60 0,0
20.04.2019 08:00:00 7,6 6,6 4 2 4 2 ESE 1028,2 43 0,0
20.04.2019 07:00:00 6,7 5,5 4 2 13 7 S 1028,0 0 0,0
20.04.2019 06:00:00 7,2 5,9 4 2 5 3 SE 1027,7 0 0,0
20.04.2019 05:00:00 8,1 6,4 4 2 7 4 SE 1027,7 0 0,0
20.04.2019 04:00:00 8,4 6,4 0 0 3 1 N 1027,7 0 0,0
20.04.2019 03:00:00 9,3 6,7 0 0 3 1 N 1027,4 0 0,0
20.04.2019 02:00:00 10,2 6,9 4 2 5 3 E 1027,4 0 0,0
20.04.2019 01:00:00 11,4 7,0 0 0 4 2 N 1027,4 0 0,0
20.04.2019 00:00:00 13,5 7,0 4 2 10 6 SE 1027,2 0 0,0
19.04.2019 23:00:00 14,4 7,6 0 0 5 3 N 1026,7 0 0,0
19.04.2019 22:00:00 16,5 7,4 4 2 13 7 NE 1026,2 0 0,0
19.04.2019 21:00:00 17,4 7,1 4 2 11 6 NNW 1025,8 0 0,0
19.04.2019 20:00:00 18,8 6,7 7 4 25 13 SSW 1025,2 0 0,0
19.04.2019 19:00:00 21,1 4,8 11 6 19 11 S 1024,7 0 0,0
19.04.2019 18:00:00 22,7 3,7 6 3 15 8 SE 1024,2 13 0,0
19.04.2019 17:00:00 23,2 3,8 6 4 16 9 ENE 1024,2 43 0,0
19.04.2019 16:00:00 23,7 5,0 6 3 25 13 E 1024,1 48 0,0
19.04.2019 15:00:00 22,4 3,7 9 5 23 13 N 1024,3 41 0,0
19.04.2019 14:00:00 21,6 5,2 11 6 19 11 NNE 1024,5 43 0,0
19.04.2019 13:00:00 21,0 7,4 7 4 18 10 NNE 1024,8 60 0,0
19.04.2019 12:00:00 19,7 7,8 8 4 19 10 ENE 1025,0 60 0,0
19.04.2019 11:00:00 16,8 7,5 8 4 16 9 NE 1025,4 60 0,0
19.04.2019 10:00:00 14,6 6,2 7 4 15 8 NE 1025,4 60 0,0
19.04.2019 09:00:00 12,2 5,0 7 4 14 7 ENE 1025,5 60 0,0
19.04.2019 08:00:00 10,2 4,4 4 2 10 5 ENE 1025,3 38 0,0
19.04.2019 07:00:00 6,9 3,3 4 2 10 5 SE 1025,1 0 0,0
19.04.2019 06:00:00 8,4 4,3 5 3 8 4 NE 1024,7 0 0,0
19.04.2019 05:00:00 8,2 3,7 4 2 8 5 ENE 1024,6 0 0,0
19.04.2019 04:00:00 7,5 3,8 0 0 5 3 N 1024,1 0 0,0
19.04.2019 03:00:00 10,3 4,4 6 3 9 5 ENE 1023,9 0 0,0
19.04.2019 02:00:00 9,5 3,8 0 0 6 3 N 1023,9 0 0,0
19.04.2019 01:00:00 10,7 3,8 4 2 11 6 ENE 1023,8 0 0,0
19.04.2019 00:00:00 13,6 3,7 5 3 12 7 NE 1023,3 0 0,0
18.04.2019 23:00:00 15,0 3,8 6 4 13 7 ENE 1022,8 0 0,0
18.04.2019 22:00:00 16,4 3,6 7 4 13 7 ENE 1022,3 0 0,0
18.04.2019 21:00:00 17,3 3,5 8 4 14 7 ENE 1021,7 0 0,0
18.04.2019 20:00:00 18,8 2,7 7 4 26 14 E 1021,0 43 0,0
18.04.2019 19:00:00 20,3 2,7 12 7 29 16 NE 1020,3 60 0,0
18.04.2019 18:00:00 20,8 2,4 14 8 32 17 NE 1020,1 60 0,0
18.04.2019 17:00:00 21,0 2,5 13 7 33 18 ENE 1020,1 60 0,0
18.04.2019 16:00:00 20,9 2,0 14 8 33 18 NE 1020,2 60 0,0
18.04.2019 15:00:00 20,6 2,2 14 8 31 17 NE 1020,3 60 0,0
18.04.2019 14:00:00 21,2 3,8 11 6 30 16 E 1020,4 60 0,0
18.04.2019 13:00:00 19,6 1,5 16 9 36 20 ESE 1020,9 60 0,0
18.04.2019 12:00:00 18,9 4,9 13 7 26 14 E 1021,4 60 0,0
18.04.2019 11:00:00 15,8 7,1 7 4 17 9 ENE 1022,0 60 0,0
18.04.2019 10:00:00 13,0 6,6 4 2 16 9 ENE 1022,0 60 0,0
18.04.2019 09:00:00 10,0 6,3 9 5 16 9 NE 1022,2 60 0,0
18.04.2019 08:00:00 7,6 6,1 7 4 10 6 NE 1022,2 33 0,0
18.04.2019 07:00:00 6,9 6,6 7 4 15 8 NE 1021,8 0 0,0
18.04.2019 06:00:00 6,0 5,9 4 2 13 7 NE 1021,6 0 0,0
18.04.2019 05:00:00 6,7 6,6 4 2 9 5 NE 1021,7 0 0,0
18.04.2019 04:00:00 7,1 6,9 4 2 10 5 E 1021,7 0 0,0
18.04.2019 03:00:00 7,6 6,8 5 3 15 8 E 1021,5 0 0,0
18.04.2019 02:00:00 8,3 7,8 7 4 11 6 NE 1021,6 0 0,0
18.04.2019 01:00:00 7,4 6,8 4 2 8 5 E 1021,6 0 0,0
18.04.2019 00:00:00 8,4 7,7 5 3 6 4 ENE 1021,4 0 0,0
17.04.2019 23:00:00 8,9 7,3 0 0 7 4 N 1021,5 0 0,0
17.04.2019 22:00:00 10,6 8,0 4 2 8 4 E 1021,1 0 0,0
17.04.2019 21:00:00 11,7 8,2 5 3 13 7 NNE 1020,3 0 0,0
17.04.2019 20:00:00 12,9 8,7 7 4 15 8 NE 1020,0 0 0,0
17.04.2019 19:00:00 14,0 9,0 8 5 17 9 NE 1020,0 22 0,0
17.04.2019 18:00:00 13,8 9,0 6 4 12 6 NNE 1020,1 11 0,0
17.04.2019 17:00:00 13,1 8,9 4 2 6 3 ENE 1020,5 0 0,0
17.04.2019 16:00:00 13,5 9,0 4 2 8 4 NE 1020,6 0 0,0
17.04.2019 15:00:00 13,1 9,1 4 2 11 6 W 1020,8 4 0,0
17.04.2019 14:00:00 11,6 8,7 7 4 18 10 S 1021,1 0 0,0
17.04.2019 13:00:00 11,2 9,0 8 5 16 9 SE 1021,1 0 0,0
17.04.2019 12:00:00 10,5 9,1 8 4 12 6 SSE 1021,2 0 0,0
17.04.2019 11:00:00 9,8 9,3 5 3 8 4 SSE 1021,1 0 0,0
17.04.2019 10:00:00 9,2 9,0 4 2 9 5 S 1020,7 0 0,0
17.04.2019 09:00:00 8,7 8,6 4 2 6 3 SE 1020,2 0 0,0
17.04.2019 08:00:00 8,4 8,3 4 2 6 3 SE 1019,9 0 0,0
17.04.2019 07:00:00 8,2 8,2 4 2 4 2 SSE 1019,3 0 0,0
17.04.2019 06:00:00 8,3 8,3 4 2 5 3 SSE 1018,9 0 0,0
17.04.2019 05:00:00 8,5 8,5 4 2 5 3 SSE 1018,9 0 0,0
17.04.2019 04:00:00 8,6 8,6 4 2 4 2 S 1018,7 0 0,0

tt = Température de l'air
td = dewpoint
ff = Vitesse du vent
fx = gusts
dd = Direction du vent
ppp = reduced air pressure
sd = Ensoleillement
rr = Quantités de précipitations

stations d'obs. à proximité